createdAt,value
2023-02-16T00:05:27.022Z,99971.36
2023-02-16T00:11:35.350Z,99971.34
2023-02-16T00:18:09.492Z,99977.58
2023-02-16T00:24:56.021Z,99970.14
2023-02-16T00:30:56.367Z,99963.96
2023-02-16T00:37:29.702Z,99952.06
2023-02-16T00:43:18.839Z,99949.66
2023-02-16T00:49:25.794Z,99942.96
2023-02-16T00:55:24.725Z,99937.98
2023-02-16T01:01:28.010Z,99926.27
2023-02-16T01:08:21.821Z,99924.36
2023-02-16T01:14:00.820Z,99918.18
2023-02-16T01:19:57.827Z,99908.89
2023-02-16T01:25:43.474Z,99905.91
2023-02-16T01:31:46.709Z,99905.34
2023-02-16T01:37:48.119Z,99896.76
2023-02-16T01:43:51.066Z,99884.03
2023-02-16T01:50:24.886Z,99878.55
2023-02-16T02:02:02.334Z,99874.05
2023-02-16T02:07:05.746Z,99866.23
2023-02-16T02:12:21.203Z,99863.85
2023-02-16T02:17:25.657Z,99861.09
2023-02-16T02:23:04.394Z,99855.27
2023-02-16T02:28:20.847Z,99850.65
2023-02-16T02:33:54.774Z,99851.84
2023-02-16T02:39:26.253Z,99857.19
2023-02-16T02:44:31.873Z,99855.77
2023-02-16T02:49:36.093Z,99850.82
2023-02-16T02:55:00.080Z,99852.09
2023-02-16T03:00:28.469Z,99851.38
2023-02-16T03:05:34.758Z,99849.98
2023-02-16T03:10:56.958Z,99850.95
2023-02-16T03:16:06.378Z,99860.81
2023-02-16T03:21:32.492Z,99865.21
2023-02-16T03:26:56.488Z,99861.86
2023-02-16T03:32:00.211Z,99865.48
2023-02-16T03:37:05.791Z,99866.00
2023-02-16T03:42:09.137Z,99862.05
2023-02-16T03:47:12.664Z,99861.15
2023-02-16T03:52:16.011Z,99860.53
2023-02-16T03:57:19.274Z,99858.59
2023-02-16T04:02:23.381Z,99858.21
2023-02-16T04:07:26.982Z,99856.66
2023-02-16T04:12:39.392Z,99855.89
2023-02-16T04:17:45.198Z,99852.88
2023-02-16T04:22:49.225Z,99851.28
2023-02-16T04:27:53.891Z,99850.30
2023-02-16T04:32:59.033Z,99852.91
2023-02-16T04:38:02.732Z,99846.71
2023-02-16T04:43:06.204Z,99841.95
2023-02-16T04:48:09.530Z,99838.61
2023-02-16T04:53:12.872Z,99837.33
2023-02-16T04:58:17.278Z,99840.73
2023-02-16T05:03:21.022Z,99835.71
2023-02-16T05:08:24.542Z,99842.11
2023-02-16T05:13:46.399Z,99845.40
2023-02-16T05:18:49.863Z,99840.58
2023-02-16T05:23:53.397Z,99838.15
2023-02-16T05:28:57.289Z,99833.20
2023-02-16T05:34:00.600Z,99828.25
2023-02-16T05:39:04.294Z,99823.98
2023-02-16T05:44:09.036Z,99827.82
2023-02-16T05:49:12.664Z,99831.06
2023-02-16T05:54:19.069Z,99837.25
2023-02-16T05:59:22.866Z,99838.32
2023-02-16T06:04:26.390Z,99840.33
2023-02-16T06:09:31.663Z,99840.91
2023-02-16T06:14:34.909Z,99843.95
2023-02-16T06:19:38.680Z,99844.61
2023-02-16T06:24:42.195Z,99844.71
2023-02-16T06:29:45.640Z,99851.95
2023-02-16T06:34:49.022Z,99853.96
2023-02-16T06:39:52.377Z,99847.45
2023-02-16T06:44:55.961Z,99839.26
2023-02-16T06:49:59.421Z,99844.41
2023-02-16T06:55:03.831Z,99847.10
2023-02-16T07:00:08.111Z,99851.70
2023-02-16T07:05:12.020Z,99851.11
2023-02-16T07:10:15.359Z,99848.29
2023-02-16T07:15:19.153Z,99849.06
2023-02-16T07:20:22.694Z,99848.30
2023-02-16T07:25:26.668Z,99851.69
2023-02-16T07:30:30.199Z,99856.73
2023-02-16T07:35:37.330Z,99850.56
2023-02-16T07:40:41.809Z,99850.54
2023-02-16T07:45:45.022Z,99847.29
2023-02-16T07:50:48.394Z,99836.30
2023-02-16T07:55:52.078Z,99841.89
2023-02-16T08:01:08.094Z,99838.31
2023-02-16T08:06:13.255Z,99833.93
2023-02-16T08:11:22.712Z,99834.61
2023-02-16T08:16:28.684Z,99833.39
2023-02-16T08:21:34.260Z,99834.20
2023-02-16T08:26:40.557Z,99836.34
2023-02-16T08:31:46.646Z,99837.61
2023-02-16T08:36:56.928Z,99828.92
2023-02-16T08:42:02.115Z,99819.67
2023-02-16T08:47:05.551Z,99816.72
2023-02-16T08:52:10.356Z,99814.82
2023-02-16T08:57:13.642Z,99809.37
2023-02-16T09:02:18.372Z,99812.14
2023-02-16T09:07:22.521Z,99812.11
2023-02-16T09:12:26.407Z,99810.26
2023-02-16T09:17:30.099Z,99808.35
2023-02-16T09:22:33.625Z,99806.70
2023-02-16T09:27:37.545Z,99804.98
2023-02-16T09:32:41.498Z,99802.45
2023-02-16T09:37:45.430Z,99800.92
2023-02-16T09:43:05.244Z,99790.81
2023-02-16T09:48:24.674Z,99792.07
2023-02-16T09:53:41.102Z,99792.73
2023-02-16T09:58:53.796Z,99790.22
2023-02-16T10:04:24.773Z,99789.21
2023-02-16T10:09:30.459Z,99792.95
2023-02-16T10:14:47.369Z,99788.38
2023-02-16T10:19:56.511Z,99787.48
2023-02-16T10:25:23.541Z,99787.84
2023-02-16T10:30:32.029Z,99784.77
2023-02-16T10:35:47.662Z,99783.16
2023-02-16T10:41:30.022Z,99782.30
2023-02-16T10:46:41.039Z,99775.30
2023-02-16T10:51:49.244Z,99769.89
2023-02-16T10:57:04.227Z,99763.67
2023-02-16T11:02:25.639Z,99757.77
2023-02-16T11:07:31.590Z,99749.19
2023-02-16T11:12:42.597Z,99740.86
2023-02-16T11:18:00.272Z,99727.64
2023-02-16T11:23:26.135Z,99723.77
2023-02-16T11:28:38.211Z,99717.12
2023-02-16T11:33:43.640Z,99701.49
2023-02-16T11:38:59.606Z,99695.74
2023-02-16T11:44:04.260Z,99686.39
2023-02-16T11:49:41.654Z,99681.32
2023-02-16T11:54:56.273Z,99677.09
2023-02-16T12:00:02.363Z,99674.52
2023-02-16T12:05:18.195Z,99669.96
2023-02-16T12:10:21.668Z,99656.37
2023-02-16T12:15:30.552Z,99649.68
2023-02-16T12:21:12.842Z,99642.12
2023-02-16T12:26:19.174Z,99640.25
2023-02-16T12:31:34.904Z,99637.12
2023-02-16T12:36:49.035Z,99628.90
2023-02-16T12:42:28.211Z,99624.30
2023-02-16T12:47:45.533Z,99619.99
2023-02-16T12:52:58.102Z,99617.88
2023-02-16T12:58:30.968Z,99605.05
2023-02-16T13:03:51.615Z,99603.41
2023-02-16T13:09:07.403Z,99598.67
2023-02-16T13:14:17.362Z,99596.23
2023-02-16T13:19:21.156Z,99589.75
2023-02-16T13:24:38.890Z,99592.17
2023-02-16T13:30:01.681Z,99589.84
2023-02-16T13:35:36.541Z,99588.67
2023-02-16T13:41:18.975Z,99581.16
2023-02-16T13:46:32.666Z,99573.04
2023-02-16T13:51:47.509Z,99565.04
2023-02-16T13:56:51.956Z,99568.14
2023-02-16T14:01:57.553Z,99566.14
2023-02-16T14:07:03.794Z,99569.17
2023-02-16T14:12:12.000Z,99568.95
2023-02-16T14:17:22.038Z,99572.84
2023-02-16T14:22:33.558Z,99570.24
2023-02-16T14:27:43.908Z,99570.52
2023-02-16T14:32:51.482Z,99569.41
2023-02-16T14:38:06.036Z,99570.44
2023-02-16T14:43:34.632Z,99568.70
2023-02-16T14:49:19.512Z,99572.48
2023-02-16T14:54:57.813Z,99568.68
2023-02-16T15:00:29.249Z,99563.98
2023-02-16T15:05:38.089Z,99554.86
2023-02-16T15:10:47.845Z,99554.20
2023-02-16T15:15:56.427Z,99545.74
2023-02-16T15:21:01.041Z,99547.73
2023-02-16T15:26:15.452Z,99548.14
2023-02-16T15:31:24.150Z,99553.62
2023-02-16T16:46:30.242Z,99557.91
2023-02-16T16:52:42.698Z,99562.73
2023-02-16T16:58:08.693Z,99565.23
2023-02-16T17:04:18.950Z,99565.36
2023-02-16T17:10:06.643Z,99564.72
2023-02-16T17:15:27.776Z,99572.70
2023-02-16T17:27:12.911Z,99580.58
2023-02-16T17:32:49.684Z,99584.23
2023-02-16T17:37:56.022Z,99583.77
2023-02-16T17:43:22.302Z,99588.77
2023-02-16T17:48:56.650Z,99590.13
2023-02-16T17:54:20.242Z,99586.70
2023-02-16T17:59:34.260Z,99586.80
2023-02-16T18:04:50.367Z,99590.50
2023-02-16T18:10:19.573Z,99594.30
2023-02-16T18:16:22.529Z,99595.59
2023-02-16T18:21:58.470Z,99593.83
2023-02-16T18:27:45.385Z,99594.45
2023-02-16T18:33:34.232Z,99601.31
2023-02-16T18:39:48.742Z,99602.21
2023-02-16T18:45:22.749Z,99609.74
2023-02-16T18:51:02.295Z,99616.09
2023-02-16T18:56:57.607Z,99617.23
2023-02-16T19:03:22.242Z,99624.14
2023-02-16T19:09:26.379Z,99622.30
2023-02-16T19:14:47.607Z,99626.05
2023-02-16T19:20:12.319Z,99628.86
2023-02-16T19:25:39.498Z,99634.66
2023-02-16T19:31:59.553Z,99625.75
2023-02-16T19:38:16.404Z,99621.41
2023-02-16T19:44:02.044Z,99620.27
2023-02-16T19:50:22.116Z,99620.58
2023-02-16T19:56:18.665Z,99617.72
2023-02-16T20:02:18.522Z,99614.91
2023-02-16T20:08:23.814Z,99619.80
2023-02-16T20:14:38.011Z,99621.19
2023-02-16T20:20:22.091Z,99620.82
2023-02-16T20:25:56.950Z,99621.17
2023-02-16T20:32:06.325Z,99622.89
2023-02-16T20:37:41.753Z,99619.15
2023-02-16T20:43:27.771Z,99625.02
2023-02-16T20:48:59.384Z,99627.42
2023-02-16T20:54:52.150Z,99628.98
2023-02-16T21:00:20.043Z,99628.67
2023-02-16T21:06:06.183Z,99620.33
2023-02-16T21:11:43.243Z,99616.49
2023-02-16T21:16:57.436Z,99616.27
2023-02-16T21:22:47.522Z,99616.19
2023-02-16T21:28:36.858Z,99622.84
2023-02-16T21:34:08.981Z,99619.36
2023-02-16T21:40:15.877Z,99617.46
2023-02-16T21:46:20.120Z,99617.28
2023-02-16T21:52:15.390Z,99608.46
2023-02-16T21:58:25.608Z,99610.95
2023-02-16T22:04:33.590Z,99608.80
2023-02-16T22:10:39.571Z,99616.67
2023-02-16T22:16:35.155Z,99612.55
2023-02-16T22:22:51.013Z,99611.19
2023-02-16T22:29:08.879Z,99611.12
2023-02-16T22:35:52.731Z,99610.80
2023-02-16T22:41:23.356Z,99607.98
2023-02-16T22:47:00.091Z,99602.88
2023-02-16T22:52:53.821Z,99613.96
2023-02-16T22:59:01.086Z,99612.80
2023-02-16T23:05:08.408Z,99612.20
2023-02-16T23:11:25.971Z,99611.80
2023-02-16T23:17:33.633Z,99618.08
2023-02-16T23:23:38.851Z,99614.11
2023-02-16T23:29:10.951Z,99613.80
2023-02-16T23:35:12.343Z,99612.11
2023-02-16T23:40:47.231Z,99610.25
2023-02-16T23:46:39.012Z,99610.25
2023-02-16T23:58:46.461Z,99605.21
